Air Resources Laboratory banner image
Air Resources Laboratory web site National Oceanic and Atmospheric Administration (NOAA)

pr metar


TJSJ 151156Z 00000KT 10SM FEW030 FEW036 FEW080 26/22 A2998 RMK AO2 SLP152 70006
 T02610222 10261 20244 53015=
TJSJ 151156Z 00000KT 10SM FEW030 FEW036 FEW080 26/22 A2998=